Time,TemperatureF,DewpointF,PressureIn,WindDirection,WindDirectionDegrees,WindSpeedMPH,WindSpeedGustMPH,Humidity,HourlyPrecipIn,Conditions,Clouds,dailyrainin,SoftwareType,DateUTC
2013-08-15 00:05:00,51.4,47.4,30.00,SW,225,0.0,-999.0,86,-99.99,,,0.00,Acu-Link.com,2013-08-15 04:05:00,
2013-08-15 00:20:00,51.1,47.1,30.01,WSW,247,0.0,-999.0,86,-99.99,,,0.00,Acu-Link.com,2013-08-15 04:20:00,
2013-08-15 00:36:00,50.7,46.7,30.00,SSW,202,0.0,-999.0,86,-99.99,,,0.00,Acu-Link.com,2013-08-15 04:36:00,
2013-08-15 00:51:00,50.4,46.4,30.01,WNW,292,0.0,-999.0,86,-99.99,,,0.00,Acu-Link.com,2013-08-15 04:51:00,
2013-08-15 01:06:00,50.0,46.3,30.01,SSW,202,0.0,-999.0,87,-99.99,,,0.00,Acu-Link.com,2013-08-15 05:06:00,
2013-08-15 01:22:00,50.0,46.3,30.01,West,270,0.0,-999.0,87,-99.99,,,0.00,Acu-Link.com,2013-08-15 05:22:00,
2013-08-15 01:37:00,49.6,45.9,30.01,WSW,247,0.0,-999.0,87,-99.99,,,0.00,Acu-Link.com,2013-08-15 05:37:00,
2013-08-15 01:52:00,49.5,45.8,30.00,WSW,247,0.0,-999.0,87,-99.99,,,0.00,Acu-Link.com,2013-08-15 05:52:00,
2013-08-15 02:07:00,49.1,45.4,30.01,SW,225,0.0,-999.0,87,-99.99,,,0.00,Acu-Link.com,2013-08-15 06:07:00,
2013-08-15 02:22:00,48.7,45.3,30.00,SSE,157,0.0,-999.0,88,-99.99,,,0.00,Acu-Link.com,2013-08-15 06:22:00,
2013-08-15 02:37:00,48.4,45.3,30.00,SSE,157,0.0,-999.0,89,-99.99,,,0.00,Acu-Link.com,2013-08-15 06:37:00,
2013-08-15 02:53:00,48.0,44.9,30.00,SSE,157,0.0,-999.0,89,-99.99,,,0.00,Acu-Link.com,2013-08-15 06:53:00,
2013-08-15 03:08:00,47.8,44.7,30.00,SSE,157,0.0,-999.0,89,-99.99,,,0.00,Acu-Link.com,2013-08-15 07:08:00,
2013-08-15 03:23:00,47.5,44.4,30.00,South,180,0.0,-999.0,89,-99.99,,,0.00,Acu-Link.com,2013-08-15 07:23:00,
2013-08-15 03:39:00,47.1,44.0,30.00,South,180,0.0,-999.0,89,-99.99,,,0.00,Acu-Link.com,2013-08-15 07:39:00,
2013-08-15 03:54:00,46.8,43.7,30.00,South,180,0.0,-999.0,89,-99.99,,,0.00,Acu-Link.com,2013-08-15 07:54:00,
2013-08-15 04:12:00,46.8,43.7,29.99,South,180,0.0,-999.0,89,-99.99,,,0.00,Acu-Link.com,2013-08-15 08:12:00,
2013-08-15 04:27:00,46.8,43.7,29.99,South,180,0.0,-999.0,89,-99.99,,,0.00,Acu-Link.com,2013-08-15 08:27:00,
2013-08-15 04:42:00,46.4,43.3,29.99,South,180,0.0,-999.0,89,-99.99,,,0.00,Acu-Link.com,2013-08-15 08:42:00,
2013-08-15 04:57:00,46.0,42.9,29.99,South,180,0.0,-999.0,89,-99.99,,,0.00,Acu-Link.com,2013-08-15 08:57:00,
2013-08-15 05:12:00,46.0,42.9,29.99,West,270,0.0,-999.0,89,-99.99,,,0.00,Acu-Link.com,2013-08-15 09:12:00,
2013-08-15 05:27:00,45.9,42.8,30.01,SW,225,0.0,-999.0,89,-99.99,,,0.00,Acu-Link.com,2013-08-15 09:27:00,
2013-08-15 05:43:00,45.7,42.6,30.01,West,270,0.0,-999.0,89,-99.99,,,0.00,Acu-Link.com,2013-08-15 09:43:00,
2013-08-15 05:58:00,45.5,42.4,30.01,West,270,0.0,-999.0,89,-99.99,,,0.00,Acu-Link.com,2013-08-15 09:58:00,
2013-08-15 06:13:00,45.5,42.4,30.01,SSW,202,0.0,-999.0,89,-99.99,,,0.00,Acu-Link.com,2013-08-15 10:13:00,
2013-08-15 06:28:00,45.1,42.1,30.02,South,180,0.0,-999.0,89,-99.99,,,0.00,Acu-Link.com,2013-08-15 10:28:00,
2013-08-15 06:44:00,45.0,42.0,30.02,WSW,247,0.0,-999.0,89,-99.99,,,0.00,Acu-Link.com,2013-08-15 10:44:00,
2013-08-15 06:59:00,44.6,41.6,30.03,West,270,0.0,-999.0,89,-99.99,,,0.00,Acu-Link.com,2013-08-15 10:59:00,
2013-08-15 07:14:00,44.8,41.8,30.03,WSW,247,0.0,-999.0,89,-99.99,,,0.00,Acu-Link.com,2013-08-15 11:14:00,
2013-08-15 07:29:00,46.6,43.5,30.03,WSW,247,0.0,-999.0,89,-99.99,,,0.00,Acu-Link.com,2013-08-15 11:29:00,
2013-08-15 07:45:00,49.1,46.0,30.03,SSE,157,0.0,-999.0,89,-99.99,,,0.00,Acu-Link.com,2013-08-15 11:45:00,
2013-08-15 08:00:00,50.4,47.3,30.03,West,270,0.0,-999.0,89,-99.99,,,0.00,Acu-Link.com,2013-08-15 12:00:00,
2013-08-15 08:15:00,51.3,48.2,30.03,WNW,292,0.0,-999.0,89,-99.99,,,0.00,Acu-Link.com,2013-08-15 12:15:00,
2013-08-15 08:31:00,53.6,49.5,30.04,SW,225,0.0,-999.0,86,-99.99,,,0.00,Acu-Link.com,2013-08-15 12:31:00,
2013-08-15 08:46:00,57.2,50.4,30.03,SW,225,0.0,-999.0,78,-99.99,,,0.00,Acu-Link.com,2013-08-15 12:46:00,
2013-08-15 09:01:00,57.0,49.2,30.03,West,270,2.2,-999.0,75,-99.99,,,0.00,Acu-Link.com,2013-08-15 13:01:00,
2013-08-15 09:16:00,58.6,50.7,30.03,West,270,0.0,-999.0,75,-99.99,,,0.00,Acu-Link.com,2013-08-15 13:16:00,
2013-08-15 09:32:00,59.7,49.5,30.03,SSW,202,0.0,-999.0,69,-99.99,,,0.00,Acu-Link.com,2013-08-15 13:32:00,
2013-08-15 09:47:00,61.7,51.0,30.03,SW,225,0.0,-999.0,68,-99.99,,,0.00,Acu-Link.com,2013-08-15 13:47:00,
2013-08-15 10:02:00,62.1,50.6,30.03,SW,225,0.0,-999.0,66,-99.99,,,0.00,Acu-Link.com,2013-08-15 14:02:00,
2013-08-15 10:17:00,64.9,51.1,30.03,SSW,202,2.7,-999.0,61,-99.99,,,0.00,Acu-Link.com,2013-08-15 14:17:00,
2013-08-15 10:33:00,65.5,51.2,30.02,West,270,0.0,-999.0,60,-99.99,,,0.00,Acu-Link.com,2013-08-15 14:33:00,
2013-08-15 11:03:00,66.6,48.9,30.02,SE,135,2.2,-999.0,53,-99.99,,,0.00,Acu-Link.com,2013-08-15 15:03:00,
2013-08-15 11:20:00,68.2,49.4,30.02,West,270,0.0,-999.0,51,-99.99,,,0.00,Acu-Link.com,2013-08-15 15:20:00,
2013-08-15 11:35:00,68.9,50.0,30.02,South,180,1.1,-999.0,51,-99.99,,,0.00,Acu-Link.com,2013-08-15 15:35:00,
2013-08-15 11:50:00,70.0,51.6,30.02,NNE,22,1.7,-999.0,52,-99.99,,,0.00,Acu-Link.com,2013-08-15 15:50:00,
2013-08-15 12:06:00,68.9,48.9,30.01,NNW,337,1.1,-999.0,49,-99.99,,,0.00,Acu-Link.com,2013-08-15 16:06:00,
2013-08-15 12:21:00,69.3,49.9,30.01,SSW,202,2.7,-999.0,50,-99.99,,,0.00,Acu-Link.com,2013-08-15 16:21:00,
2013-08-15 12:36:00,69.6,49.0,30.01,SW,225,1.1,-999.0,48,-99.99,,,0.00,Acu-Link.com,2013-08-15 16:36:00,
2013-08-15 12:52:00,71.6,51.4,30.00,SW,225,2.7,-999.0,49,-99.99,,,0.00,Acu-Link.com,2013-08-15 16:52:00,
2013-08-15 13:07:00,71.2,49.9,30.00,SW,225,1.7,-999.0,47,-99.99,,,0.00,Acu-Link.com,2013-08-15 17:07:00,
2013-08-15 13:37:00,70.7,50.6,29.99,WSW,247,1.1,-999.0,49,-99.99,,,0.00,Acu-Link.com,2013-08-15 17:37:00,
2013-08-15 13:53:00,69.3,49.9,29.99,SW,225,2.2,-999.0,50,-99.99,,,0.00,Acu-Link.com,2013-08-15 17:53:00,
2013-08-15 14:08:00,70.2,50.7,29.98,SW,225,2.2,-999.0,50,-99.99,,,0.00,Acu-Link.com,2013-08-15 18:08:00,
2013-08-15 14:39:00,72.1,51.3,29.97,SW,225,2.7,-999.0,48,-99.99,,,0.00,Acu-Link.com,2013-08-15 18:39:00,
2013-08-15 15:09:00,72.1,51.9,29.97,West,270,2.2,-999.0,49,-99.99,,,0.00,Acu-Link.com,2013-08-15 19:09:00,
2013-08-15 15:24:00,73.4,53.6,29.96,WNW,292,1.1,-999.0,50,-99.99,,,0.00,Acu-Link.com,2013-08-15 19:24:00,
2013-08-15 15:40:00,73.9,53.5,29.96,West,270,1.7,-999.0,49,-99.99,,,0.00,Acu-Link.com,2013-08-15 19:40:00,
2013-08-15 16:10:00,73.0,52.7,29.95,SSW,202,3.2,-999.0,49,-99.99,,,0.00,Acu-Link.com,2013-08-15 20:10:00,
2013-08-15 16:25:00,73.4,54.2,29.95,West,270,2.7,-999.0,51,-99.99,,,0.00,Acu-Link.com,2013-08-15 20:25:00,
2013-08-15 16:40:00,72.1,53.0,29.94,SSW,202,2.2,-999.0,51,-99.99,,,0.00,Acu-Link.com,2013-08-15 20:40:00,
2013-08-15 16:56:00,71.4,52.8,29.94,WSW,247,2.7,-999.0,52,-99.99,,,0.00,Acu-Link.com,2013-08-15 20:56:00,
2013-08-15 17:11:00,73.9,54.1,29.95,West,270,1.1,-999.0,50,-99.99,,,0.00,Acu-Link.com,2013-08-15 21:11:00,
2013-08-15 17:27:00,72.3,53.1,29.94,West,270,1.7,-999.0,51,-99.99,,,0.00,Acu-Link.com,2013-08-15 21:27:00,
2013-08-15 17:42:00,73.6,53.8,29.94,SW,225,2.7,-999.0,50,-99.99,,,0.00,Acu-Link.com,2013-08-15 21:42:00,
2013-08-15 17:57:00,74.1,54.8,29.94,WNW,292,2.2,-999.0,51,-99.99,,,0.00,Acu-Link.com,2013-08-15 21:57:00,
2013-08-15 18:13:00,72.1,53.0,29.94,SW,225,2.2,-999.0,51,-99.99,,,0.00,Acu-Link.com,2013-08-15 22:13:00,
2013-08-15 18:28:00,71.1,53.1,29.94,SW,225,2.7,-999.0,53,-99.99,,,0.00,Acu-Link.com,2013-08-15 22:28:00,
2013-08-15 18:58:00,69.4,53.5,29.94,SSW,202,0.0,-999.0,57,-99.99,,,0.00,Acu-Link.com,2013-08-15 22:58:00,
2013-08-15 19:14:00,68.9,54.0,29.94,SSW,202,0.0,-999.0,59,-99.99,,,0.00,Acu-Link.com,2013-08-15 23:14:00,
2013-08-15 19:45:00,68.7,54.2,29.95,SW,225,0.0,-999.0,60,-99.99,,,0.00,Acu-Link.com,2013-08-15 23:45:00,
2013-08-15 20:15:00,65.7,54.0,29.95,SSW,202,0.0,-999.0,66,-99.99,,,0.00,Acu-Link.com,2013-08-16 00:15:00,
2013-08-15 20:31:00,63.9,53.9,29.95,SSW,202,0.0,-999.0,70,-99.99,,,0.00,Acu-Link.com,2013-08-16 00:31:00,
2013-08-15 20:46:00,62.4,52.9,29.95,SSW,202,0.0,-999.0,71,-99.99,,,0.00,Acu-Link.com,2013-08-16 00:46:00,
2013-08-15 21:02:00,61.2,52.8,29.95,South,180,0.0,-999.0,74,-99.99,,,0.00,Acu-Link.com,2013-08-16 01:02:00,
2013-08-15 21:48:00,59.0,52.1,29.96,SSE,157,0.0,-999.0,78,-99.99,,,0.00,Acu-Link.com,2013-08-16 01:48:00,
2013-08-15 22:03:00,58.1,51.3,29.97,SSW,202,0.0,-999.0,78,-99.99,,,0.00,Acu-Link.com,2013-08-16 02:03:00,
2013-08-15 22:19:00,57.7,51.2,29.97,WSW,247,0.0,-999.0,79,-99.99,,,0.00,Acu-Link.com,2013-08-16 02:19:00,
2013-08-15 22:58:00,56.5,51.1,29.97,South,180,0.0,-999.0,82,-99.99,,,0.00,Acu-Link.com,2013-08-16 02:58:00,
2013-08-15 23:29:00,56.3,50.9,29.97,South,180,0.0,-999.0,82,-99.99,,,0.00,Acu-Link.com,2013-08-16 03:29:00,
2013-08-15 23:48:00,55.0,50.6,29.97,South,180,0.0,-999.0,85,-99.99,,,0.00,Acu-Link.com,2013-08-16 03:48:00,